Tiwala — V2DX3 — position and weather

sailwx.info

Track history (hours):
 
Tides and Currents Weather Stations Pressure Air Temp Water Temp Dewpoint Dewpoint Depression Visibility Wind Speed Wind Dir Waves Ship Positions

Tiwala

Last reported at 2018-Jun-23 01:02 UTC. Time now 2018-Jun-24 01:35 UTC.
Position N 62°55' E 005°52'.

Length 107 m; draft 3.9 m.

Type: Ship. MMSI: 305364000.

Date/timePositionNaut miles runAvg speedWind from/ knotsBaromVisibWave heightAir tempDewpointWater temp
2018-Jun-23 01:02N 62°55' E 005°52'0 9.6
2018-Jun-23 01:00N 62°55' E 005°52'5 9.2
2018-Jun-23 00:30N 62°51' E 005°46'5 9.4
2018-Jun-23 00:00N 62°48' E 005°39'5 9.3
2018-Jun-22 23:30N 62°43' E 005°35'5 9.8
2018-Jun-22 23:00N 62°39' E 005°29'5 9.4
2018-Jun-22 22:30N 62°35' E 005°23'5 9.2
2018-Jun-22 22:00N 62°32' E 005°18'5 9.1
2018-Jun-22 21:30N 62°28' E 005°13'5 9.1
2018-Jun-22 21:00N 62°24' E 005°07'5 9.5
2018-Jun-22 20:30N 62°20' E 005°02'5 9.6
2018-Jun-22 19:59N 62°16' E 004°56'5 9.6
2018-Jun-22 19:30N 62°12' E 004°51'5 9.6
2018-Jun-22 19:00N 62°08' E 004°46'5 9.4
2018-Jun-22 18:29N 62°03' E 004°41'4 9.2
2018-Jun-22 18:00N 61°59' E 004°37'5 9.4
2018-Jun-22 17:30N 61°55' E 004°33'5 9.6
2018-Jun-22 17:00N 61°50' E 004°29'5 9.5
2018-Jun-22 16:30N 61°46' E 004°26'29 9.4
2018-Jun-22 13:24N 61°17' E 004°17'4 8.7
2018-Jun-22 13:00N 61°14' E 004°17'4 8.4
2018-Jun-22 12:30N 61°09' E 004°16'4 8.4
2018-Jun-22 12:00N 61°05' E 004°16'4 8.4
2018-Jun-22 11:30N 61°01' E 004°16'4 7.9
2018-Jun-22 11:00N 60°57' E 004°16'4 7.9
2018-Jun-22 10:30N 60°53' E 004°18'4 7.9
2018-Jun-22 10:00N 60°49' E 004°20'4 8.0
2018-Jun-22 09:30N 60°45' E 004°21'4 7.8
2018-Jun-22 09:00N 60°42' E 004°22'4 7.5
2018-Jun-22 08:30N 60°38' E 004°23'4 7.5
2018-Jun-22 08:00N 60°34' E 004°25'4 7.5
2018-Jun-22 07:30N 60°31' E 004°27'4 7.6
2018-Jun-22 07:00N 60°27' E 004°29'4 7.2
2018-Jun-22 06:30N 60°24' E 004°33'4 7.6
2018-Jun-22 06:00N 60°21' E 004°38'3 6.8
2018-Jun-22 05:30N 60°18' E 004°42'3 6.7
2018-Jun-22 05:00N 60°15' E 004°45'3 5.6
2018-Jun-22 04:30N 60°13' E 004°49'3 5.6
2018-Jun-22 04:00N 60°11' E 004°52'3 6.8
2018-Jun-22 03:30N 60°09' E 004°58'5 9.7
2018-Jun-22 03:00N 60°10' E 005°07'5 9.5
2018-Jun-22 02:30N 60°09' E 005°16'510.7
2018-Jun-22 02:00N 60°07' E 005°26'510.7
2018-Jun-22 01:30N 60°06' E 005°37'4 8.6
2018-Jun-22 01:00N 60°02' E 005°42'5 9.2
2018-Jun-22 00:30N 59°58' E 005°47'511.0
2018-Jun-22 00:00N 60°02' E 005°56'611.4
2018-Jun-21 23:30N 60°06' E 006°03'611.1
2018-Jun-21 23:00N 60°12' E 006°05'611.4
2018-Jun-21 22:30N 60°16' E 006°12'611.2
2018-Jun-21 22:00N 60°21' E 006°18'611.0
2018-Jun-21 21:30N 60°24' E 006°27'510.3
2018-Jun-21 21:00N 60°26' E 006°36'5 9.1
2018-Jun-21 20:29N 60°22' E 006°39'510.6
2018-Jun-21 20:00N 60°17' E 006°37'510.8
2018-Jun-21 19:30N 60°12' E 006°34'611.0
2018-Jun-21 19:00N 60°06' E 006°33'1 1.8
2018-Jun-21 18:29N 60°05' E 006°32'0 0.0
2018-Jun-21 17:59N 60°05' E 006°32'0 0.0
2018-Jun-21 17:29N 60°05' E 006°32'0 0.0
2018-Jun-21 16:59N 60°05' E 006°32'0 0.0
2018-Jun-21 16:29N 60°05' E 006°32'0 0.0
2018-Jun-21 15:59N 60°05' E 006°32'0 0.0
2018-Jun-21 15:29N 60°05' E 006°32'0 0.0
2018-Jun-21 14:59N 60°05' E 006°32'0 0.0
2018-Jun-21 14:29N 60°05' E 006°32'0 0.0
2018-Jun-21 13:59N 60°05' E 006°32'0 0.0
2018-Jun-21 13:29N 60°05' E 006°32'0 0.0
2018-Jun-21 12:59N 60°05' E 006°32'0 0.0
2018-Jun-21 12:29N 60°05' E 006°32'0 0.0
2018-Jun-21 11:59N 60°05' E 006°32'0 0.0
2018-Jun-21 11:29N 60°05' E 006°32'0 0.0
2018-Jun-21 10:59N 60°05' E 006°32'0 0.0
2018-Jun-21 10:29N 60°05' E 006°32'0 0.0
2018-Jun-21 09:59N 60°05' E 006°32'0 0.0
2018-Jun-21 09:29N 60°05' E 006°32'0 0.0
2018-Jun-21 08:59N 60°05' E 006°32'0 0.0
2018-Jun-21 08:29N 60°05' E 006°32'0 0.0
2018-Jun-21 07:59N 60°05' E 006°32'0 0.0
2018-Jun-21 07:29N 60°05' E 006°32'0 0.0
2018-Jun-21 06:59N 60°05' E 006°32'0 0.0
2018-Jun-21 06:29N 60°05' E 006°32'0 0.0
2018-Jun-21 05:59N 60°05' E 006°32'0 0.0
2018-Jun-21 05:29N 60°05' E 006°32'0 0.0
2018-Jun-21 04:59N 60°05' E 006°32'0 0.0
2018-Jun-21 04:29N 60°05' E 006°32'0 0.0
2018-Jun-21 03:59N 60°05' E 006°32'0 0.0
2018-Jun-21 03:29N 60°05' E 006°32'0 0.0
2018-Jun-21 02:59N 60°05' E 006°32'0 0.0
2018-Jun-21 02:29N 60°05' E 006°32'0 0.0
2018-Jun-21 01:59N 60°05' E 006°32'0 0.0
2018-Jun-21 01:29N 60°05' E 006°32'0 0.0
2018-Jun-21 00:59N 60°05' E 006°32'0 0.0
2018-Jun-21 00:29N 60°05' E 006°32'0 0.0
2018-Jun-20 23:59N 60°05' E 006°32'0 0.0
2018-Jun-20 23:29N 60°05' E 006°32'0 0.0
2018-Jun-20 22:59N 60°05' E 006°32'0 0.0
2018-Jun-20 22:29N 60°05' E 006°32'0 0.0
2018-Jun-20 21:59N 60°05' E 006°32'0 0.0
2018-Jun-20 21:29N 60°05' E 006°32'0 0.0
2018-Jun-20 20:59N 60°05' E 006°32'0 0.0
2018-Jun-20 20:29N 60°05' E 006°32'0 0.0
2018-Jun-20 19:59N 60°05' E 006°32'0 0.0
2018-Jun-20 19:29N 60°05' E 006°32'0 0.0
2018-Jun-20 18:59N 60°05' E 006°32'0 0.0
2018-Jun-20 18:29N 60°05' E 006°32'0 0.0
2018-Jun-20 17:59N 60°05' E 006°32'0 0.0
2018-Jun-20 17:29N 60°05' E 006°32'0 0.0
2018-Jun-20 16:59N 60°05' E 006°32'0 0.0
2018-Jun-20 16:29N 60°05' E 006°32'0 0.0
2018-Jun-20 15:59N 60°05' E 006°32'0 0.0
2018-Jun-20 15:29N 60°05' E 006°32'0 0.0
2018-Jun-20 14:59N 60°05' E 006°32'0 0.0
2018-Jun-20 14:29N 60°05' E 006°32'0 0.0
2018-Jun-20 13:59N 60°05' E 006°32'0 0.0
2018-Jun-20 13:29N 60°05' E 006°32'0 0.0
2018-Jun-20 12:59N 60°05' E 006°32'0 0.0
2018-Jun-20 12:29N 60°05' E 006°32'0 0.0
2018-Jun-20 11:59N 60°05' E 006°32'0 0.0
2018-Jun-20 11:29N 60°05' E 006°32'0 0.0
2018-Jun-20 10:59N 60°05' E 006°32'0 0.0
2018-Jun-20 10:28N 60°05' E 006°32'0 0.0
2018-Jun-20 09:58N 60°05' E 006°32'0 0.0
2018-Jun-20 09:28N 60°05' E 006°32'0 0.0
2018-Jun-20 08:58N 60°05' E 006°32'0 0.0
2018-Jun-20 08:28N 60°05' E 006°32'0 0.0
2018-Jun-20 07:58N 60°05' E 006°32'0 0.0
2018-Jun-20 07:28N 60°05' E 006°32'0 0.0
2018-Jun-20 06:58N 60°05' E 006°32'0 0.0
2018-Jun-20 06:28N 60°05' E 006°32'0 0.0
2018-Jun-20 05:58N 60°05' E 006°32'0 0.0
2018-Jun-20 05:28N 60°05' E 006°32'0 0.0
2018-Jun-20 04:58N 60°05' E 006°32'0 0.6
2018-Jun-20 04:30N 60°05' E 006°33'3 6.7
2018-Jun-20 04:00N 60°08' E 006°33'5 9.9
2018-Jun-20 03:30N 60°13' E 006°35'5 9.7
2018-Jun-20 03:00N 60°18' E 006°37'5 9.9
2018-Jun-20 02:30N 60°23' E 006°40'4 8.0
2018-Jun-20 02:00N 60°26' E 006°35'5 9.4
2018-Jun-20 01:30N 60°24' E 006°27'510.0
2018-Jun-20 01:00N 60°21' E 006°19'510.2
2018-Jun-20 00:30N 60°17' E 006°12'510.0
2018-Jun-20 00:00N 60°13' E 006°07'5 9.6
2018-Jun-19 23:30N 60°08' E 006°04'510.4
2018-Jun-19 23:00N 60°04' E 005°60'510.2
2018-Jun-19 22:30N 59°60' E 005°53'510.4
2018-Jun-19 22:00N 59°56' E 005°46'510.4
2018-Jun-19 21:30N 59°52' E 005°40'510.1
2018-Jun-19 21:00N 59°47' E 005°35'5 9.6
2018-Jun-19 20:30N 59°44' E 005°29'510.3
2018-Jun-19 19:59N 59°40' E 005°21'510.5
2018-Jun-19 19:30N 59°36' E 005°16'5 9.4
2018-Jun-19 19:00N 59°31' E 005°13'4 8.5
2018-Jun-19 18:30N 59°27' E 005°14'4 8.6
2018-Jun-19 18:00N 59°23' E 005°17'4 9.0
2018-Jun-19 17:30N 59°19' E 005°20'5 9.5
2018-Jun-19 17:00N 59°14' E 005°21'5 9.1
2018-Jun-19 16:30N 59°10' E 005°21'4 8.7
2018-Jun-19 16:01N 59°05' E 005°21'4 7.7
2018-Jun-19 15:30N 59°03' E 005°15'4 7.5
2018-Jun-19 15:00N 59°02' E 005°08'4 7.9
2018-Jun-19 14:30N 59°03' E 005°00'5 9.2
2018-Jun-19 14:00N 59°03' E 004°51'235 9.4
2018-Jun-18 13:01N 58°43' W 002°42'010.4
2018-Jun-18 13:00N 58°43' W 002°42'612.8
2018-Jun-18 12:30N 58°42' W 002°55'713.5
2018-Jun-18 12:01N 58°43' W 003°07'612.8
2018-Jun-18 11:31N 58°43' W 003°20'202 8.4
2018-Jun-17 11:20N 55°57' W 006°54'3 8.0
2018-Jun-17 11:00N 55°55' W 006°52'4 7.7
2018-Jun-17 10:31N 55°51' W 006°48'4 7.4
2018-Jun-17 10:01N 55°48' W 006°45'3 6.8
2018-Jun-17 09:30N 55°45' W 006°42'4 7.0
2018-Jun-17 09:00N 55°42' W 006°39'3 6.1
2018-Jun-17 08:30N 55°40' W 006°36'3 6.8
2018-Jun-17 08:00N 55°37' W 006°32'4 9.0
2018-Jun-17 07:30N 55°34' W 006°26'5 9.8
2018-Jun-17 07:00N 55°30' W 006°20'510.8
2018-Jun-17 06:30N 55°26' W 006°14'611.4
2018-Jun-17 06:00N 55°25' W 006°04'612.6
2018-Jun-17 05:30N 55°20' W 005°57'714.7
2018-Jun-17 05:00N 55°14' W 005°50'713.5
2018-Jun-17 04:30N 55°08' W 005°45'1612.1
2018-Jun-17 03:12N 54°53' W 005°33'211.9
2018-Jun-17 03:00N 54°51' W 005°31'611.6
2018-Jun-17 02:30N 54°46' W 005°27'611.0
2018-Jun-17 02:00N 54°41' W 005°24'510.5
2018-Jun-17 01:30N 54°36' W 005°21'510.1
2018-Jun-17 01:00N 54°31' W 005°18'5 9.8
2018-Jun-17 00:30N 54°27' W 005°16'5 9.4
2018-Jun-17 00:00N 54°22' W 005°16'5 9.4
2018-Jun-16 23:30N 54°17' W 005°17'5 9.6
2018-Jun-16 22:59N 54°12' W 005°19'510.0
2018-Jun-16 22:27N 54°07' W 005°20'67 8.7
2018-Jun-16 14:45N 53°01' W 005°33'2 6.6
2018-Jun-16 14:30N 52°59' W 005°33'4 7.2
2018-Jun-16 13:59N 52°55' W 005°34'4 8.5
2018-Jun-16 13:29N 52°51' W 005°34'5 9.3
2018-Jun-16 12:54N 52°46' W 005°35'20310.0
2018-Jun-15 16:43N 49°29' W 006°52'  
Track history (hours):
 
Tides and Currents Weather Stations Pressure Air Temp Water Temp Dewpoint Dewpoint Depression Visibility Wind Speed Wind Dir Waves Ship Positions

Tiwala

Last reported at 2018-Jun-23 01:02 UTC. Time now 2018-Jun-24 01:35 UTC.
Position N 62°55' E 005°52'.

Length 107 m; draft 3.9 m.

Type: Ship. MMSI: 305364000.

Date/timePositionNaut miles runAvg speedWind from/ knotsBaromVisibWave heightAir tempDewpointWater temp
2018-Jun-23 01:02N 62°55' E 005°52'0 9.6
2018-Jun-23 01:00N 62°55' E 005°52'5 9.2
2018-Jun-23 00:30N 62°51' E 005°46'5 9.4
2018-Jun-23 00:00N 62°48' E 005°39'5 9.3
2018-Jun-22 23:30N 62°43' E 005°35'5 9.8
2018-Jun-22 23:00N 62°39' E 005°29'5 9.4
2018-Jun-22 22:30N 62°35' E 005°23'5 9.2
2018-Jun-22 22:00N 62°32' E 005°18'5 9.1
2018-Jun-22 21:30N 62°28' E 005°13'5 9.1
2018-Jun-22 21:00N 62°24' E 005°07'5 9.5
2018-Jun-22 20:30N 62°20' E 005°02'5 9.6
2018-Jun-22 19:59N 62°16' E 004°56'5 9.6
2018-Jun-22 19:30N 62°12' E 004°51'5 9.6
2018-Jun-22 19:00N 62°08' E 004°46'5 9.4
2018-Jun-22 18:29N 62°03' E 004°41'4 9.2
2018-Jun-22 18:00N 61°59' E 004°37'5 9.4
2018-Jun-22 17:30N 61°55' E 004°33'5 9.6
2018-Jun-22 17:00N 61°50' E 004°29'5 9.5
2018-Jun-22 16:30N 61°46' E 004°26'29 9.4
2018-Jun-22 13:24N 61°17' E 004°17'4 8.7
2018-Jun-22 13:00N 61°14' E 004°17'4 8.4
2018-Jun-22 12:30N 61°09' E 004°16'4 8.4
2018-Jun-22 12:00N 61°05' E 004°16'4 8.4
2018-Jun-22 11:30N 61°01' E 004°16'4 7.9
2018-Jun-22 11:00N 60°57' E 004°16'4 7.9
2018-Jun-22 10:30N 60°53' E 004°18'4 7.9
2018-Jun-22 10:00N 60°49' E 004°20'4 8.0
2018-Jun-22 09:30N 60°45' E 004°21'4 7.8
2018-Jun-22 09:00N 60°42' E 004°22'4 7.5
2018-Jun-22 08:30N 60°38' E 004°23'4 7.5
2018-Jun-22 08:00N 60°34' E 004°25'4 7.5
2018-Jun-22 07:30N 60°31' E 004°27'4 7.6
2018-Jun-22 07:00N 60°27' E 004°29'4 7.2
2018-Jun-22 06:30N 60°24' E 004°33'4 7.6
2018-Jun-22 06:00N 60°21' E 004°38'3 6.8
2018-Jun-22 05:30N 60°18' E 004°42'3 6.7
2018-Jun-22 05:00N 60°15' E 004°45'3 5.6
2018-Jun-22 04:30N 60°13' E 004°49'3 5.6
2018-Jun-22 04:00N 60°11' E 004°52'3 6.8
2018-Jun-22 03:30N 60°09' E 004°58'5 9.7
2018-Jun-22 03:00N 60°10' E 005°07'5 9.5
2018-Jun-22 02:30N 60°09' E 005°16'510.7
2018-Jun-22 02:00N 60°07' E 005°26'510.7
2018-Jun-22 01:30N 60°06' E 005°37'4 8.6
2018-Jun-22 01:00N 60°02' E 005°42'5 9.2
2018-Jun-22 00:30N 59°58' E 005°47'511.0
2018-Jun-22 00:00N 60°02' E 005°56'611.4
2018-Jun-21 23:30N 60°06' E 006°03'611.1
2018-Jun-21 23:00N 60°12' E 006°05'611.4
2018-Jun-21 22:30N 60°16' E 006°12'611.2
2018-Jun-21 22:00N 60°21' E 006°18'611.0
2018-Jun-21 21:30N 60°24' E 006°27'510.3
2018-Jun-21 21:00N 60°26' E 006°36'5 9.1
2018-Jun-21 20:29N 60°22' E 006°39'510.6
2018-Jun-21 20:00N 60°17' E 006°37'510.8
2018-Jun-21 19:30N 60°12' E 006°34'611.0
2018-Jun-21 19:00N 60°06' E 006°33'1 1.8
2018-Jun-21 18:29N 60°05' E 006°32'0 0.0
2018-Jun-21 17:59N 60°05' E 006°32'0 0.0
2018-Jun-21 17:29N 60°05' E 006°32'0 0.0
2018-Jun-21 16:59N 60°05' E 006°32'0 0.0
2018-Jun-21 16:29N 60°05' E 006°32'0 0.0
2018-Jun-21 15:59N 60°05' E 006°32'0 0.0
2018-Jun-21 15:29N 60°05' E 006°32'0 0.0
2018-Jun-21 14:59N 60°05' E 006°32'0 0.0
2018-Jun-21 14:29N 60°05' E 006°32'0 0.0
2018-Jun-21 13:59N 60°05' E 006°32'0 0.0
2018-Jun-21 13:29N 60°05' E 006°32'0 0.0
2018-Jun-21 12:59N 60°05' E 006°32'0 0.0
2018-Jun-21 12:29N 60°05' E 006°32'0 0.0
2018-Jun-21 11:59N 60°05' E 006°32'0 0.0
2018-Jun-21 11:29N 60°05' E 006°32'0 0.0
2018-Jun-21 10:59N 60°05' E 006°32'0 0.0
2018-Jun-21 10:29N 60°05' E 006°32'0 0.0
2018-Jun-21 09:59N 60°05' E 006°32'0 0.0
2018-Jun-21 09:29N 60°05' E 006°32'0 0.0
2018-Jun-21 08:59N 60°05' E 006°32'0 0.0
2018-Jun-21 08:29N 60°05' E 006°32'0 0.0
2018-Jun-21 07:59N 60°05' E 006°32'0 0.0
2018-Jun-21 07:29N 60°05' E 006°32'0 0.0
2018-Jun-21 06:59N 60°05' E 006°32'0 0.0
2018-Jun-21 06:29N 60°05' E 006°32'0 0.0
2018-Jun-21 05:59N 60°05' E 006°32'0 0.0
2018-Jun-21 05:29N 60°05' E 006°32'0 0.0
2018-Jun-21 04:59N 60°05' E 006°32'0 0.0
2018-Jun-21 04:29N 60°05' E 006°32'0 0.0
2018-Jun-21 03:59N 60°05' E 006°32'0 0.0
2018-Jun-21 03:29N 60°05' E 006°32'0 0.0
2018-Jun-21 02:59N 60°05' E 006°32'0 0.0
2018-Jun-21 02:29N 60°05' E 006°32'0 0.0
2018-Jun-21 01:59N 60°05' E 006°32'0 0.0
2018-Jun-21 01:29N 60°05' E 006°32'0 0.0
2018-Jun-21 00:59N 60°05' E 006°32'0 0.0
2018-Jun-21 00:29N 60°05' E 006°32'0 0.0
2018-Jun-20 23:59N 60°05' E 006°32'0 0.0
2018-Jun-20 23:29N 60°05' E 006°32'0 0.0
2018-Jun-20 22:59N 60°05' E 006°32'0 0.0
2018-Jun-20 22:29N 60°05' E 006°32'0 0.0
2018-Jun-20 21:59N 60°05' E 006°32'0 0.0
2018-Jun-20 21:29N 60°05' E 006°32'0 0.0
2018-Jun-20 20:59N 60°05' E 006°32'0 0.0
2018-Jun-20 20:29N 60°05' E 006°32'0 0.0
2018-Jun-20 19:59N 60°05' E 006°32'0 0.0
2018-Jun-20 19:29N 60°05' E 006°32'0 0.0
2018-Jun-20 18:59N 60°05' E 006°32'0 0.0
2018-Jun-20 18:29N 60°05' E 006°32'0 0.0
2018-Jun-20 17:59N 60°05' E 006°32'0 0.0
2018-Jun-20 17:29N 60°05' E 006°32'0 0.0
2018-Jun-20 16:59N 60°05' E 006°32'0 0.0
2018-Jun-20 16:29N 60°05' E 006°32'0 0.0
2018-Jun-20 15:59N 60°05' E 006°32'0 0.0
2018-Jun-20 15:29N 60°05' E 006°32'0 0.0
2018-Jun-20 14:59N 60°05' E 006°32'0 0.0
2018-Jun-20 14:29N 60°05' E 006°32'0 0.0
2018-Jun-20 13:59N 60°05' E 006°32'0 0.0
2018-Jun-20 13:29N 60°05' E 006°32'0 0.0
2018-Jun-20 12:59N 60°05' E 006°32'0 0.0
2018-Jun-20 12:29N 60°05' E 006°32'0 0.0
2018-Jun-20 11:59N 60°05' E 006°32'0 0.0
2018-Jun-20 11:29N 60°05' E 006°32'0 0.0
2018-Jun-20 10:59N 60°05' E 006°32'0 0.0
2018-Jun-20 10:28N 60°05' E 006°32'0 0.0
2018-Jun-20 09:58N 60°05' E 006°32'0 0.0
2018-Jun-20 09:28N 60°05' E 006°32'0 0.0
2018-Jun-20 08:58N 60°05' E 006°32'0 0.0
2018-Jun-20 08:28N 60°05' E 006°32'0 0.0
2018-Jun-20 07:58N 60°05' E 006°32'0 0.0
2018-Jun-20 07:28N 60°05' E 006°32'0 0.0
2018-Jun-20 06:58N 60°05' E 006°32'0 0.0
2018-Jun-20 06:28N 60°05' E 006°32'0 0.0
2018-Jun-20 05:58N 60°05' E 006°32'0 0.0
2018-Jun-20 05:28N 60°05' E 006°32'0 0.0
2018-Jun-20 04:58N 60°05' E 006°32'0 0.6
2018-Jun-20 04:30N 60°05' E 006°33'3 6.7
2018-Jun-20 04:00N 60°08' E 006°33'5 9.9
2018-Jun-20 03:30N 60°13' E 006°35'5 9.7
2018-Jun-20 03:00N 60°18' E 006°37'5 9.9
2018-Jun-20 02:30N 60°23' E 006°40'4 8.0
2018-Jun-20 02:00N 60°26' E 006°35'5 9.4
2018-Jun-20 01:30N 60°24' E 006°27'510.0
2018-Jun-20 01:00N 60°21' E 006°19'510.2
2018-Jun-20 00:30N 60°17' E 006°12'510.0
2018-Jun-20 00:00N 60°13' E 006°07'5 9.6
2018-Jun-19 23:30N 60°08' E 006°04'510.4
2018-Jun-19 23:00N 60°04' E 005°60'510.2
2018-Jun-19 22:30N 59°60' E 005°53'510.4
2018-Jun-19 22:00N 59°56' E 005°46'510.4
2018-Jun-19 21:30N 59°52' E 005°40'510.1
2018-Jun-19 21:00N 59°47' E 005°35'5 9.6
2018-Jun-19 20:30N 59°44' E 005°29'510.3
2018-Jun-19 19:59N 59°40' E 005°21'510.5
2018-Jun-19 19:30N 59°36' E 005°16'5 9.4
2018-Jun-19 19:00N 59°31' E 005°13'4 8.5
2018-Jun-19 18:30N 59°27' E 005°14'4 8.6
2018-Jun-19 18:00N 59°23' E 005°17'4 9.0
2018-Jun-19 17:30N 59°19' E 005°20'5 9.5
2018-Jun-19 17:00N 59°14' E 005°21'5 9.1
2018-Jun-19 16:30N 59°10' E 005°21'4 8.7
2018-Jun-19 16:01N 59°05' E 005°21'4 7.7
2018-Jun-19 15:30N 59°03' E 005°15'4 7.5
2018-Jun-19 15:00N 59°02' E 005°08'4 7.9
2018-Jun-19 14:30N 59°03' E 005°00'5 9.2
2018-Jun-19 14:00N 59°03' E 004°51'235 9.4
2018-Jun-18 13:01N 58°43' W 002°42'010.4
2018-Jun-18 13:00N 58°43' W 002°42'612.8
2018-Jun-18 12:30N 58°42' W 002°55'713.5
2018-Jun-18 12:01N 58°43' W 003°07'612.8
2018-Jun-18 11:31N 58°43' W 003°20'202 8.4
2018-Jun-17 11:20N 55°57' W 006°54'3 8.0
2018-Jun-17 11:00N 55°55' W 006°52'4 7.7
2018-Jun-17 10:31N 55°51' W 006°48'4 7.4
2018-Jun-17 10:01N 55°48' W 006°45'3 6.8
2018-Jun-17 09:30N 55°45' W 006°42'4 7.0
2018-Jun-17 09:00N 55°42' W 006°39'3 6.1
2018-Jun-17 08:30N 55°40' W 006°36'3 6.8
2018-Jun-17 08:00N 55°37' W 006°32'4 9.0
2018-Jun-17 07:30N 55°34' W 006°26'5 9.8
2018-Jun-17 07:00N 55°30' W 006°20'510.8
2018-Jun-17 06:30N 55°26' W 006°14'611.4
2018-Jun-17 06:00N 55°25' W 006°04'612.6
2018-Jun-17 05:30N 55°20' W 005°57'714.7
2018-Jun-17 05:00N 55°14' W 005°50'713.5
2018-Jun-17 04:30N 55°08' W 005°45'1612.1
2018-Jun-17 03:12N 54°53' W 005°33'211.9
2018-Jun-17 03:00N 54°51' W 005°31'611.6
2018-Jun-17 02:30N 54°46' W 005°27'611.0
2018-Jun-17 02:00N 54°41' W 005°24'510.5
2018-Jun-17 01:30N 54°36' W 005°21'510.1
2018-Jun-17 01:00N 54°31' W 005°18'5 9.8
2018-Jun-17 00:30N 54°27' W 005°16'5 9.4
2018-Jun-17 00:00N 54°22' W 005°16'5 9.4
2018-Jun-16 23:30N 54°17' W 005°17'5 9.6
2018-Jun-16 22:59N 54°12' W 005°19'510.0
2018-Jun-16 22:27N 54°07' W 005°20'67 8.7
2018-Jun-16 14:45N 53°01' W 005°33'2 6.6
2018-Jun-16 14:30N 52°59' W 005°33'4 7.2
2018-Jun-16 13:59N 52°55' W 005°34'4 8.5
2018-Jun-16 13:29N 52°51' W 005°34'5 9.3
2018-Jun-16 12:54N 52°46' W 005°35'20310.0
2018-Jun-15 16:43N 49°29' W 006°52'  

Dump ship's entire track history